Flight Track Log - Related Links

Times and Time Zones

All times are in EDT time to prevent confusion due to time zone crossing. See the DAL268 flight status page for this flight to view local times or setup timezone preferences in your user account.

Time Position Orientation Groundspeed Altitude Reporting Facility
EDT Latitude Longitude Course Direction KTS MPH feet Rate Location/Type
Sat 02:37:45 PM 37.6667 -122.3167 38° Northeast 205 236 2,200  Level Northern Cal TRACON
Sat 02:38:46 PM 37.7167 -122.2500 47° Northeast 261 300 4,100 2,352 Climbing Northern Cal TRACON
Sat 02:39:00 PM 37.6397 -122.4351 119° Southeast  Level FlightAware Approximate
Sat 02:40:00 PM 37.6676 -122.3158 38° Northeast  Level FlightAware Approximate
Sat 02:41:00 PM 37.7658 -122.2175 38° Northeast  Level FlightAware Approximate
Sat 02:41:04 PM 37.8525 -122.1122 39° Northeast 288 331 10,000  Level Oakland Center
Sat 02:42:00 PM 37.8641 -122.1193 38° Northeast  Level FlightAware Approximate
Sat 02:42:06 PM 37.9228 -122.0472 36° Northeast 314 361 11,400  Level Oakland Center
Sat 02:43:00 PM 37.9623 -122.0210 38° Northeast  Level FlightAware Approximate
Sat 02:43:08 PM 38.0003 -121.9725 37° Northeast 347 399 13,100  Level Oakland Center
Sat 02:44:09 PM 38.0844 -121.8933 37° Northeast 371 427 15,100 1,951 Climbing Oakland Center
Sat 02:45:11 PM 38.1700 -121.8131 36° Northeast 382 440 17,100 1,951 Climbing Oakland Center
Sat 02:46:12 PM 38.2572 -121.7292 37° Northeast 391 450 19,100 1,902 Climbing Oakland Center
Sat 02:47:14 PM 38.3472 -121.6433 37° Northeast 405 466 21,000 1,742 Climbing Oakland Center
Sat 02:48:16 PM 38.4397 -121.5522 38° Northeast 415 478 22,700 1,707 Climbing Oakland Center
Sat 02:49:17 PM 38.5258 -121.4119 52° Northeast 429 494 24,500 1,512 Climbing Oakland Center
Sat 02:50:19 PM 38.5986 -121.2850 54° Northeast 443 510 25,800 1,268 Climbing Oakland Center
Sat 02:51:20 PM 38.6744 -121.1561 53° Northeast 454 522 27,100 1,220 Climbing Oakland Center
Sat 02:52:22 PM 38.7436 -121.0356 54° Northeast 457 526 28,300 1,220 Climbing Oakland Center
Sat 02:53:23 PM 38.8378 -120.8722 53° Northeast 472 543 29,600 1,220 Climbing Oakland Center
Sat 02:54:25 PM 38.9178 -120.7342 53° Northeast 480 552 30,800 1,122 Climbing Oakland Center
Sat 02:55:26 PM 38.9986 -120.5944 53° Northeast 485 558 31,900 1,073 Climbing Oakland Center
Sat 02:56:28 PM 39.0803 -120.4533 53° Northeast 490 564 33,000 537 Climbing Oakland Center
Sat 02:57:29 PM 39.1608 -120.3122 54° Northeast 488 562 33,000 146 Level Oakland Center
Sat 02:58:31 PM 39.2408 -120.1725 53° Northeast 486 559 33,300 878 Climbing Oakland Center
Sat 02:59:32 PM 39.3356 -120.0075 53° Northeast 491 565 34,800 829 Climbing Oakland Center
Sat 03:00:34 PM 39.4164 -119.8661 53° Northeast 488 562 35,000 98 Climbing Oakland Center
Sat 03:01:35 PM 39.4939 -119.7258 54° Northeast 480 552 35,000  Level Oakland Center
Sat 03:02:37 PM 39.5739 -119.5833 54° Northeast 486 559 35,000  Level Oakland Center
Sat 03:03:38 PM 39.6514 -119.4411 55° Northeast 482 555 35,000  Level Oakland Center
Sat 03:04:39 PM 39.7064 -119.2803 66° East 490 564 35,000  Level Oakland Center
Sat 03:05:41 PM 39.7453 -119.1106 73° East 489 563 35,000  Level Oakland Center
Sat 03:06:42 PM 39.7833 -118.9400 74° East 487 560 35,000 439 Level Oakland Center
Sat 03:07:44 PM 39.8219 -118.7694 74° East 488 562 35,900 878 Climbing Oakland Center
Sat 03:08:45 PM 39.8594 -118.5978 74° East 489 563 36,800 541 Climbing Oakland Center
Sat 03:09:46 PM 39.8978 -118.4275 74° East 487 560 37,000 98 Climbing Oakland Center
Sat 03:10:48 PM 39.9353 -118.2603 74° East 482 555 37,000  Level Oakland Center
Sat 03:11:49 PM 39.9722 -118.0925 74° East 481 554 37,000  Level Oakland Center
Sat 03:12:50 PM 40.0172 -117.8925 74° East 479 551 37,000  Level Oakland Center
Sat 03:13:52 PM 40.0542 -117.7233 74° East 483 556 37,000  Level Oakland Center
Sat 03:14:53 PM 40.0897 -117.5553 74° East 481 554 37,000  Level Oakland Center
Sat 03:15:54 PM 40.1278 -117.3842 74° East 488 562 37,000  Level Oakland Center
Sat 03:16:40 PM 40.1567 -117.2458 75° East 488 562 37,000  Level Salt Lake Center
Sat 03:17:42 PM 40.1908 -117.0833 75° East 487 560 37,000  Level Salt Lake Center
Sat 03:18:44 PM 40.2306 -116.8933 75° East 490 564 37,000  Level Salt Lake Center
Sat 03:19:46 PM 40.2636 -116.7303 75° East 494 568 37,000  Level Salt Lake Center
Sat 03:20:48 PM 40.3050 -116.5406 74° East 492 566 37,000  Level Salt Lake Center
Sat 03:21:50 PM 40.3383 -116.3789 75° East 486 559 37,000  Level Salt Lake Center
Sat 03:22:52 PM 40.3781 -116.1872 75° East 487 560 37,000  Level Salt Lake Center
Sat 03:23:53 PM 40.4114 -116.0236 75° East 488 562 37,000  Level Salt Lake Center
Sat 03:24:55 PM 40.4497 -115.8311 75° East 489 563 37,000  Level Salt Lake Center
Sat 03:25:57 PM 40.4825 -115.6686 75° East 486 559 37,000  Level Salt Lake Center
Sat 03:26:59 PM 40.5139 -115.5042 76° East 486 559 37,000  Level Salt Lake Center
Sat 03:28:01 PM 40.5506 -115.3128 76° East 483 556 37,000  Level Salt Lake Center
Sat 03:29:02 PM 40.5828 -115.1508 75° East 480 552 37,000  Level Salt Lake Center
Sat 03:30:04 PM 40.6236 -114.9619 74° East 481 554 37,000  Level Salt Lake Center
Sat 03:31:06 PM 40.6561 -114.7875 76° East 478 550 37,000  Level Salt Lake Center
Sat 03:32:08 PM 40.6889 -114.6200 75° East 474 545 37,000  Level Salt Lake Center
Sat 03:33:09 PM 40.7189 -114.4508 77° East 475 547 37,000  Level Salt Lake Center
Sat 03:34:11 PM 40.7506 -114.2833 76° East 473 544 37,000  Level Salt Lake Center
Sat 03:35:13 PM 40.7808 -114.1156 77° East 471 542 37,000  Level Salt Lake Center
Sat 03:36:15 PM 40.8100 -113.9467 77° East 473 544 37,000  Level Salt Lake Center
Sat 03:37:17 PM 40.8469 -113.7453 76° East 472 543 37,000  Level Salt Lake Center
Sat 03:38:18 PM 40.8783 -113.5772 76° East 472 543 37,000  Level Salt Lake Center
Sat 03:39:20 PM 40.9069 -113.4094 77° East 470 541 37,000  Level Salt Lake Center
Sat 03:40:22 PM 40.9361 -113.2411 77° East 471 542 37,000  Level Salt Lake Center
Sat 03:41:24 PM 40.9653 -113.0728 77° East 470 541 37,000  Level Salt Lake Center
Sat 03:42:26 PM 40.9939 -112.9044 77° East 470 541 37,000  Level Salt Lake Center
Sat 03:43:27 PM 41.0231 -112.7353 77° East 472 543 37,000  Level Salt Lake Center
Sat 03:44:29 PM 41.0581 -112.5322 77° East 472 543 37,000  Level Salt Lake Center
Sat 03:45:31 PM 41.0864 -112.3611 78° East 474 545 37,000  Level Salt Lake Center
Sat 03:46:33 PM 41.1147 -112.1894 78° East 475 547 37,000  Level Salt Lake Center
Sat 03:47:34 PM 41.1439 -112.0158 77° East 478 550 37,000  Level Salt Lake Center
Sat 03:48:36 PM 41.1733 -111.8386 77° East 479 551 37,000  Level Salt Lake Center
Sat 03:49:38 PM 41.2011 -111.6606 78° East 482 555 37,000  Level Salt Lake Center
Sat 03:50:40 PM 41.2283 -111.4864 78° East 479 551 37,000  Level Salt Lake Center
Sat 03:51:42 PM 41.2561 -111.3133 78° East 479 551 37,000  Level Salt Lake Center
Sat 03:52:43 PM 41.2814 -111.1414 79° East 475 547 37,000  Level Salt Lake Center
Sat 03:53:45 PM 41.3083 -110.9669 78° East 480 552 37,000  Level Salt Lake Center
Sat 03:54:47 PM 41.3386 -110.7653 79° East 479 551 37,000  Level Salt Lake Center
Sat 03:55:49 PM 41.3636 -110.6014 78° East 476 548 37,000  Level Salt Lake Center
Sat 03:56:50 PM 41.3908 -110.4072 79° East 476 548 37,000  Level Salt Lake Center
Sat 03:57:52 PM 41.4164 -110.2442 78° East 473 544 37,000  Level Salt Lake Center
Sat 03:58:54 PM 41.4442 -110.0539 79° East 470 541 37,000  Level Salt Lake Center
Sat 03:59:56 PM 41.4675 -109.8903 79° East 470 541 37,000  Level Salt Lake Center
Sat 04:00:58 PM 41.4919 -109.7261 79° East 472 543 37,000  Level Salt Lake Center
Sat 04:01:59 PM 41.5189 -109.5333 79° East 472 543 37,000  Level Salt Lake Center
Sat 04:03:01 PM 41.5433 -109.3675 79° East 474 545 37,000  Level Salt Lake Center
Sat 04:04:50 PM 41.5875 -109.0531 79° East 484 557 37,000  Level Denver Center
Sat 04:06:07 PM 41.6100 -108.8272 82° East 477 549 37,000  Level Salt Lake Center
Sat 04:07:08 PM 41.6275 -108.6297 83° East 479 551 37,000  Level Salt Lake Center
Sat 04:08:10 PM 41.6436 -108.4628 83° East 476 548 37,000  Level Salt Lake Center
Sat 04:08:57 PM 41.6561 -108.3206 83° East 474 545 37,000  Level Denver Center
Sat 04:10:14 PM 41.6769 -108.0994 83° East 475 547 37,000  Level Salt Lake Center
Sat 04:11:16 PM 41.6953 -107.9025 83° East 477 549 37,000  Level Salt Lake Center
Sat 04:12:03 PM 41.7033 -107.7881 85° East 476 548 37,000  Level Denver Center
Sat 04:13:19 PM 41.7233 -107.5664 83° East 474 545 37,000  Level Salt Lake Center
Sat 04:14:21 PM 41.7400 -107.3689 83° East 478 550 37,000  Level Salt Lake Center
Sat 04:15:08 PM 41.7467 -107.2833 84° East 475 547 37,000  Level Denver Center
Sat 04:16:10 PM 41.7664 -107.0581 83° East 477 549 37,000  Level Denver Center
Sat 04:17:12 PM 41.7822 -106.8581 84° East 483 556 37,000  Level Denver Center
Sat 04:18:13 PM 41.7953 -106.6875 84° East 484 557 37,000  Level Denver Center
Sat 04:19:15 PM 41.8081 -106.5031 85° East 487 560 37,000  Level Denver Center
Sat 04:20:17 PM 41.8239 -106.3028 84° East 485 558 37,000  Level Denver Center
Sat 04:21:19 PM 41.8364 -106.1306 84° East 487 560 37,000  Level Denver Center
Sat 04:22:21 PM 41.8539 -105.9317 83° East 483 556 37,000  Level Denver Center
Sat 04:23:23 PM 41.8736 -105.7633 81° East 478 550 37,000  Level Denver Center
Sat 04:24:25 PM 41.8933 -105.5944 81° East 479 551 37,000  Level Denver Center
Sat 04:25:26 PM 41.9144 -105.4000 82° East 473 544 37,000  Level Denver Center
Sat 04:26:28 PM 41.9342 -105.2347 81° East 470 541 37,000  Level Denver Center
Sat 04:27:30 PM 41.9542 -105.0403 82° East 471 542 37,000  Level Denver Center
Sat 04:28:32 PM 41.9725 -104.8789 81° East 461 531 37,000  Level Denver Center
Sat 04:29:34 PM 41.9922 -104.6894 82° East 460 529 37,000  Level Denver Center
Sat 04:30:36 PM 42.0089 -104.5294 82° East 455 524 37,000  Level Denver Center
Sat 04:31:38 PM 42.0283 -104.3408 82° East 457 526 37,000  Level Denver Center
Sat 04:32:40 PM 42.0456 -104.1764 82° East 463 533 37,000  Level Denver Center
Sat 04:33:42 PM 42.0642 -103.9858 82° East 464 534 37,000  Level Denver Center
Sat 04:34:44 PM 42.0814 -103.8203 82° East 469 540 37,000  Level Denver Center
Sat 04:35:46 PM 42.1006 -103.6272 82° East 469 540 37,000  Level Denver Center
Sat 04:36:48 PM 42.1164 -103.4606 83° East 470 541 37,000  Level Denver Center
Sat 04:37:50 PM 42.1356 -103.2644 82° East 474 545 37,000  Level Denver Center
Sat 04:38:51 PM 42.1508 -103.0986 83° East 469 540 37,000  Level Denver Center
Sat 04:39:53 PM 42.1683 -102.9031 83° East 471 542 37,000  Level Denver Center
Sat 04:40:55 PM 42.1836 -102.7369 83° East 469 540 37,000  Level Denver Center
Sat 04:41:57 PM 42.2003 -102.5431 83° East 468 539 37,000  Level Denver Center
Sat 04:42:59 PM 42.2153 -102.3756 83° East 471 542 37,000  Level Denver Center
Sat 04:44:01 PM 42.2272 -102.2364 83° East 469 540 37,000  Level Denver Center
Sat 04:45:03 PM 42.2475 -102.0047 83° East 471 542 37,000  Level Denver Center
Sat 04:46:05 PM 42.2617 -101.8358 83° East 473 544 37,000  Level Denver Center
Sat 04:47:07 PM 42.2747 -101.6672 84° East 473 544 37,000  Level Denver Center
Sat 04:48:08 PM 42.2897 -101.4700 84° East 473 544 37,000  Level Denver Center
Sat 04:49:10 PM 42.3031 -101.3011 84° East 474 545 37,000  Level Denver Center
Sat 04:50:12 PM 42.3181 -101.1039 84° East 473 544 37,000  Level Denver Center
Sat 04:51:14 PM 42.3297 -100.9353 85° East 471 542 37,000  Level Denver Center
Sat 04:52:16 PM 42.3428 -100.7381 85° East 473 544 37,000  Level Denver Center
Sat 04:53:18 PM 42.3558 -100.5683 84° East 473 544 37,000  Level Denver Center
Sat 04:54:20 PM 42.3692 -100.3700 85° East 473 544 37,000  Level Denver Center
Sat 04:55:05 PM 42.3753 -100.2658 85° East 474 545 37,000  Level Minneapolis Center
Sat 04:56:07 PM 42.3875 -100.0881 85° East 474 545 37,000  Level Minneapolis Center
Sat 04:57:09 PM 42.4006 -99.8731 85° East 477 549 37,000  Level Minneapolis Center
Sat 04:58:11 PM 42.4128 -99.6947 85° East 476 548 37,000  Level Minneapolis Center
Sat 04:59:29 PM 42.4253 -99.4758 86° East 477 549 37,000  Level Denver Center
Sat 05:00:18 PM 42.4342 -99.3331 85° East 481 554 37,000  Level Minneapolis Center
Sat 05:01:20 PM 42.4450 -99.1533 85° East 480 552 37,000  Level Minneapolis Center
Sat 05:02:22 PM 42.4581 -98.9375 85° East 479 551 37,000  Level Minneapolis Center
Sat 05:03:24 PM 42.4678 -98.7589 86° East 477 549 37,000  Level Minneapolis Center
Sat 05:04:26 PM 42.4769 -98.5803 86° East 475 547 37,000  Level Minneapolis Center
Sat 05:05:28 PM 42.4850 -98.3992 86° East 479 551 37,000  Level Minneapolis Center
Sat 05:06:30 PM 42.4947 -98.2175 86° East 482 555 37,000  Level Minneapolis Center
Sat 05:07:33 PM 42.5022 -98.0347 87° East 484 557 37,000  Level Minneapolis Center
Sat 05:08:35 PM 42.5108 -97.8528 86° East 483 556 37,000  Level Minneapolis Center
Sat 05:09:37 PM 42.5192 -97.6647 86° East 484 557 37,000  Level Minneapolis Center
Sat 05:10:39 PM 42.5281 -97.4481 87° East 480 552 37,000  Level Minneapolis Center
Sat 05:11:41 PM 42.5353 -97.2661 87° East 481 554 37,000  Level Minneapolis Center
Sat 05:12:43 PM 42.5422 -97.0833 87° East 484 557 37,000  Level Minneapolis Center
Sat 05:13:45 PM 42.5478 -96.9028 88° East 481 554 37,000  Level Minneapolis Center
Sat 05:14:47 PM 42.5547 -96.7192 87° East 484 557 37,000  Level Minneapolis Center
Sat 05:15:49 PM 42.5611 -96.5364 87° East 486 559 37,000  Level Minneapolis Center
Sat 05:16:51 PM 42.5669 -96.3531 87° East 485 558 37,000  Level Minneapolis Center
Sat 05:17:53 PM 42.5728 -96.1342 88° East 484 557 37,000  Level Minneapolis Center
Sat 05:18:55 PM 42.5783 -95.9525 88° East 482 555 37,000  Level Minneapolis Center
Sat 05:19:57 PM 42.5825 -95.7725 88° East 478 550 37,000  Level Minneapolis Center
Sat 05:20:59 PM 42.5869 -95.5928 88° East 477 549 37,000  Level Minneapolis Center
Sat 05:22:01 PM 42.5914 -95.4150 88° East 472 543 37,000  Level Minneapolis Center
Sat 05:23:03 PM 42.5950 -95.2394 88° East 467 537 37,000  Level Minneapolis Center
Sat 05:24:05 PM 42.5992 -95.0639 88° East 466 536 37,000  Level Minneapolis Center
Sat 05:25:07 PM 42.6031 -94.8539 88° East 463 533 37,000  Level Minneapolis Center
Sat 05:26:09 PM 42.6061 -94.6792 89° East 463 533 37,000  Level Minneapolis Center
Sat 05:27:10 PM 42.6064 -94.5356 90° East 463 533 37,000  Level Minneapolis Center
Sat 05:28:12 PM 42.6094 -94.3283 89° East 462 532 37,000  Level Minneapolis Center
Sat 05:29:14 PM 42.6117 -94.1572 89° East 459 528 37,000  Level Minneapolis Center
Sat 05:30:16 PM 42.6136 -93.9856 89° East 460 529 37,000  Level Minneapolis Center
Sat 05:31:18 PM 42.6142 -93.8153 90° East 456 525 37,000  Level Minneapolis Center
Sat 05:32:20 PM 42.6144 -93.6108 90° East 456 525 37,000  Level Minneapolis Center
Sat 05:33:22 PM 42.6156 -93.4403 89° East 455 524 37,000  Level Minneapolis Center
Sat 05:34:24 PM 42.6156 -93.2692 90° East 457 526 37,000  Level Minneapolis Center
Sat 05:35:26 PM 42.6161 -93.0950 90° East 463 533 37,000  Level Minneapolis Center
Sat 05:36:28 PM 42.6161 -92.9228 90° East 462 532 37,000  Level Minneapolis Center
Sat 05:37:30 PM 42.6161 -92.7125 90° East 467 537 37,000  Level Minneapolis Center
Sat 05:38:31 PM 42.6142 -92.5369 91° East 469 540 37,000  Level Minneapolis Center
Sat 05:39:33 PM 42.6136 -92.3614 90° East 471 542 37,000  Level Minneapolis Center
Sat 05:40:35 PM 42.6122 -92.1856 91° East 471 542 37,000  Level Minneapolis Center
Sat 05:41:37 PM 42.6106 -92.0108 91° East 471 542 37,000  Level Minneapolis Center
Sat 05:42:39 PM 42.6072 -91.8017 91° East 471 542 37,000  Level Minneapolis Center
Sat 05:43:58 PM 42.6042 -91.5931 91° East 473 544 37,000  Level Chicago Center
Sat 05:45:00 PM 42.6025 -91.3861 91° East 471 542 37,000 435 Level Chicago Center
Sat 05:46:02 PM 42.6000 -91.2114 91° East 471 542 37,900 976 Climbing Chicago Center
Sat 05:47:03 PM 42.5967 -91.0400 91° East 461 531 39,000 537 Climbing Chicago Center
Sat 05:48:05 PM 42.5931 -90.8758 92° East 444 511 39,000  Level Chicago Center
Sat 05:49:07 PM 42.5881 -90.7053 92° East 453 521 39,000  Level Chicago Center
Sat 05:50:08 PM 42.5850 -90.4972 91° East 464 534 39,000  Level Chicago Center
Sat 05:51:10 PM 42.5800 -90.3203 92° East 473 544 39,000  Level Chicago Center
Sat 05:52:12 PM 42.5761 -90.1431 92° East 475 547 39,000  Level Chicago Center
Sat 05:53:13 PM 42.5700 -89.9681 93° East 471 542 39,000  Level Chicago Center
Sat 05:54:15 PM 42.5653 -89.7733 92° East 467 537 39,000  Level Chicago Center
Sat 05:55:17 PM 42.5603 -89.6003 92° East 462 532 39,000  Level Chicago Center
Sat 05:56:19 PM 42.5539 -89.4278 93° East 456 525 39,000  Level Chicago Center
Sat 05:57:20 PM 42.5517 -89.2550 91° East 457 526 39,000  Level Chicago Center
Sat 05:58:22 PM 42.5553 -89.0539 89° East 457 526 39,000  Level Chicago Center
Sat 05:59:24 PM 42.5558 -88.8786 90° East 464 534 39,000  Level Chicago Center
Sat 06:00:25 PM 42.5558 -88.7053 90° East 462 532 39,000  Level Chicago Center
Sat 06:01:27 PM 42.5556 -88.5344 90° East 457 526 39,000  Level Chicago Center
Sat 06:02:29 PM 42.5561 -88.3586 90° East 463 533 39,000  Level Chicago Center
Sat 06:03:31 PM 42.5550 -88.1564 90° East 463 533 39,000  Level Chicago Center
Sat 06:04:32 PM 42.5553 -87.9831 90° East 462 532 39,000  Level Chicago Center
Sat 06:05:34 PM 42.5544 -87.8092 90° East 463 533 39,000  Level Chicago Center
Sat 06:06:36 PM 42.5542 -87.6514 90° East 464 534 39,000  Level Chicago Center
Sat 06:07:38 PM 42.5522 -87.4417 91° East 465 535 39,000  Level Chicago Center
Sat 06:08:39 PM 42.5514 -87.2661 90° East 467 537 39,000  Level Chicago Center
Sat 06:09:41 PM 42.5489 -87.0908 91° East 467 537 39,000  Level Chicago Center
Sat 06:10:43 PM 42.5478 -86.9153 90° East 467 537 39,000  Level Chicago Center
Sat 06:11:45 PM 42.5456 -86.7381 91° East 471 542 39,000  Level Chicago Center
Sat 06:12:47 PM 42.5433 -86.5594 91° East 470 541 39,000  Level Chicago Center
Sat 06:13:49 PM 42.5397 -86.3839 92° East 471 542 39,000  Level Chicago Center
Sat 06:14:50 PM 42.5364 -86.1731 91° East 471 542 39,000  Level Chicago Center
Sat 06:15:52 PM 42.5319 -85.9981 92° East 471 542 39,000  Level Chicago Center
Sat 06:16:54 PM 42.5281 -85.8217 92° East 473 544 39,000  Level Chicago Center
Sat 06:17:56 PM 42.5247 -85.6461 91° East 472 543 39,000  Level Chicago Center
Sat 06:18:58 PM 42.5214 -85.4678 91° East 475 547 39,000  Level Chicago Center
Sat 06:19:59 PM 42.5167 -85.2547 92° East 474 545 39,000  Level Chicago Center
Sat 06:21:01 PM 42.5117 -85.0772 92° East 474 545 39,000  Level Chicago Center
Sat 06:22:03 PM 42.5069 -84.9019 92° East 470 541 39,000  Level Chicago Center
Sat 06:23:05 PM 42.4994 -84.7242 93° East 474 545 39,000  Level Chicago Center
Sat 06:24:07 PM 42.4864 -84.5467 96° East 474 545 39,000  Level Chicago Center
Sat 06:25:08 PM 42.4756 -84.3703 95° East 472 543 39,000  Level Chicago Center
Sat 06:25:45 PM 42.4647 -84.2397 96° East 475 547 39,000  Level Cleveland Center
Sat 06:26:45 PM 42.4533 -84.0617 95° East 475 547 39,000  Level Cleveland Center
Sat 06:27:45 PM 42.4419 -83.8867 95° East 470 541 39,000  Level Cleveland Center
Sat 06:28:45 PM 42.4300 -83.7172 95° East 461 531 39,000  Level Cleveland Center
Sat 06:29:45 PM 42.4158 -83.5419 96° East 461 531 39,000  Level Cleveland Center
Sat 06:30:45 PM 42.4056 -83.3700 95° East 470 541 39,000  Level Cleveland Center
Sat 06:31:45 PM 42.3931 -83.1922 95° East 460 529 39,000  Level Cleveland Center
Sat 06:32:45 PM 42.3781 -83.0172 97° East 465 535 39,000  Level Cleveland Center
Sat 06:33:45 PM 42.3650 -82.8453 96° East 465 535 39,000  Level Cleveland Center
Sat 06:34:45 PM 42.3497 -82.6650 96° East 465 535 39,000  Level Cleveland Center
Sat 06:35:45 PM 42.3361 -82.4903 96° East 465 535 39,000  Level Cleveland Center
Sat 06:36:45 PM 42.3200 -82.3075 97° East 470 541 39,000  Level Cleveland Center
Sat 06:37:45 PM 42.3075 -82.1639 97° East 476 548 39,000  Level Cleveland Center
Sat 06:38:45 PM 42.2956 -81.9700 95° East 476 548 39,000  Level Cleveland Center
Sat 06:39:45 PM 42.2789 -81.7900 97° East 482 555 39,000  Level Cleveland Center
Sat 06:40:45 PM 42.2639 -81.6072 96° East 487 560 39,000  Level Cleveland Center
Sat 06:41:45 PM 42.2467 -81.4078 97° East 487 560 39,000  Level Cleveland Center
Sat 06:42:45 PM 42.2292 -81.2281 97° East 487 560 39,000  Level Cleveland Center
Sat 06:43:45 PM 42.2111 -81.0458 98° East 487 560 39,000  Level Cleveland Center
Sat 06:44:45 PM 42.1953 -80.8633 97° East 482 555 39,000  Level Cleveland Center
Sat 06:45:45 PM 42.1789 -80.6811 97° East 488 562 39,000  Level Cleveland Center
Sat 06:46:45 PM 42.1600 -80.4964 98° East 488 562 39,000  Level Cleveland Center
Sat 06:47:45 PM 42.1411 -80.3144 98° East 488 562 39,000  Level Cleveland Center
Sat 06:48:45 PM 42.1239 -80.1492 98° East 488 562 39,000  Level Cleveland Center
Sat 06:49:45 PM 42.1019 -79.9450 98° East 494 568 39,000  Level Cleveland Center
Sat 06:50:45 PM 42.0842 -79.7633 97° East 494 568 39,000  Level Cleveland Center
Sat 06:51:45 PM 42.0661 -79.5764 97° East 494 568 39,000  Level Cleveland Center
Sat 06:52:45 PM 42.0458 -79.4089 99° East 506 582 39,000  Level Cleveland Center
Sat 06:53:45 PM 42.0269 -79.2247 98° East 506 582 39,000  Level Cleveland Center
Sat 06:54:45 PM 42.0058 -79.0378 99° East 501 577 39,000  Level Cleveland Center
Sat 06:55:45 PM 41.9844 -78.8542 99° East 501 577 39,000  Level Cleveland Center
Sat 06:56:45 PM 41.9628 -78.6675 99° East 501 577 39,000  Level Cleveland Center
Sat 06:57:45 PM 41.9408 -78.4894 99° East 501 577 39,000  Level Cleveland Center
Sat 06:58:45 PM 41.9186 -78.3006 99° East 501 577 39,000  Level Cleveland Center
Sat 06:59:45 PM 41.8981 -78.1169 98° East 501 577 39,000  Level Cleveland Center
Sat 07:01:15 PM 41.8556 -77.8275 101° East 495 570 39,000  Level New York Center
Sat 07:02:16 PM 41.8133 -77.6561 108° East 490 564 39,000  Level New York Center
Sat 07:03:16 PM 41.7756 -77.5186 110° East 490 564 39,000  Level New York Center
Sat 07:04:17 PM 41.7203 -77.3128 110° East 490 564 39,000  Level New York Center
Sat 07:05:17 PM 41.6756 -77.1417 109° East 490 564 39,000  Level New York Center
Sat 07:06:15 PM 41.6283 -76.9708 110° East 490 564 39,000  Level New York Center
Sat 07:07:16 PM 41.5808 -76.7972 110° East 490 564 39,000  Level New York Center
Sat 07:08:17 PM 41.5425 -76.6522 109° East 475 547 39,000  Level New York Center
Sat 07:09:18 PM 41.4964 -76.4822 110° East 475 547 39,000 -50 Level New York Center
Sat 07:10:16 PM 41.4469 -76.2981 110° East 482 555 38,900 -1,729 Descending New York Center
Sat 07:11:16 PM 41.4006 -76.1311 110° East 497 572 35,600 -3,322 Descending New York Center
Sat 07:12:17 PM 41.3442 -75.9469 112° Southeast 503 579 32,200 -3,076 Descending New York Center
Sat 07:13:15 PM 41.2953 -75.7719 110° East 503 579 29,500 -2,521 Descending New York Center
Sat 07:14:16 PM 41.2439 -75.6025 112° Southeast 498 573 27,200 -2,262 Descending New York Center
Sat 07:15:17 PM 41.1900 -75.4442 114° Southeast 487 560 24,900 -2,118 Descending New York Center
Sat 07:16:15 PM 41.1397 -75.2919 114° Southeast 467 537 23,000 -958 Descending New York Center
Sat 07:17:16 PM 41.0869 -75.1425 115° Southeast 454 522 23,000 -99 Level New York Center
Sat 07:18:16 PM 41.0361 -74.9908 114° Southeast 448 516 22,800 -347 Descending New York Center
Sat 07:19:17 PM 40.9969 -74.8647 112° Southeast 439 505 22,300 -590 Descending New York Center
Sat 07:20:18 PM 41.0017 -74.7219 87° East 398 458 21,600 -712 Descending New York Center
Sat 07:21:15 PM 41.0333 -74.5836 73° East 390 449 20,900 -559 Descending New York Center
Sat 07:22:16 PM 41.0628 -74.4447 74° East 385 443 20,500 -590 Descending New York Center
Sat 07:23:17 PM 41.0628 -74.3072 90° East 390 449 19,700 -903 Descending New York Center
Sat 07:23:49 PM 41.0167 -74.2500 137° Southeast 338 389 19,100 -457 Descending New York TRACON
Sat 07:24:49 PM 40.9333 -74.1667 143° Southeast 338 389 19,000 -250 Descending New York TRACON
Sat 07:25:49 PM 40.8667 -74.0833 137° Southeast 335 386 18,600 -1,150 Descending New York TRACON
Sat 07:26:49 PM 40.7833 -74.0500 163° South 318 366 16,700 -1,600 Descending New York TRACON
Sat 07:27:49 PM 40.7000 -74.0167 163° South 308 354 15,400 -1,350 Descending New York TRACON
Sat 07:28:49 PM 40.6333 -73.9667 150° Southeast 304 350 14,000 -1,400 Descending New York TRACON
Sat 07:29:49 PM 40.5500 -73.9333 163° South 291 335 12,600 -1,900 Descending New York TRACON
Sat 07:30:49 PM 40.4833 -73.9000 159° South 286 329 10,200 -2,250 Descending New York TRACON
Sat 07:31:49 PM 40.4333 -73.8167 128° Southeast 300 345 8,100 -1,100 Descending New York TRACON
Sat 07:32:49 PM 40.4000 -73.7167 114° Southeast 296 341 8,000 -250 Descending New York TRACON
Sat 07:33:49 PM 40.4167 -73.6167 78° East 308 354 7,600 -450 Descending New York TRACON
Sat 07:34:49 PM 40.4667 -73.5333 52° Northeast 307 353 7,100 -450 Descending New York TRACON
Sat 07:35:49 PM 40.5500 -73.4833 25° Northeast 299 344 6,700 -900 Descending New York TRACON
Sat 07:36:49 PM 40.6167 -73.4333 30° Northeast 292 336 5,300 -800 Descending New York TRACON
Sat 07:37:49 PM 40.7000 -73.4167 North 276 318 5,100 -400 Descending New York TRACON
Sat 07:38:49 PM 40.7667 -73.4500 339° North 251 289 4,500 -600 Descending New York TRACON
Sat 07:39:49 PM 40.8000 -73.5000 311° West 211 243 3,900 -700 Descending New York TRACON
Sat 07:40:49 PM 40.8500 -73.5500 323° Northwest 190 219 3,100 -450 Descending New York TRACON
Sat 07:41:49 PM 40.8333 -73.6167 252° West 171 197 3,000 -50 Descending New York TRACON
Sat 07:42:49 PM 40.8000 -73.6500 217° Southwest 168 193 3,000 -100 Level New York TRACON
Sat 07:43:49 PM 40.7667 -73.6833 217° Southwest 169 194 2,800 -200 Descending New York TRACON

Login

Don't have an account? Register now (free) for customized features, flight alerts, and more!